Jemison, Alabama
Current Conditions -  °F | °C
As of 7:53 AM on Thursday 23 Oct 2014 (Local Time) from KEET Reporting Station
Clear Clear  
Wind Chill: 44°   Ceiling: Unl
Heat Index: 48°   Visibility: 10mi
Dew Point: 42°   Wind: 8mph
Humidity: 80%   Direction: 50°NE
Pressure: 30.15"   Gusts: NA
Location:  32.96°N, 86.75°W
Report Text: KEET 231253Z AUTO 05007KT 10SM CLR 09/06 A3015 RMK AO2 SLP210 T00890056
Loading
Personal Weather Stations






























Interactive Weather Map
Tropical Storm Tracking
New forecast layout! Learn more

10-Day Weather Forecast

Advertisements
Track Severe Weather on mobile